Time;durP1;ratioP1;P1;durP2;ratioP2;P2;SDS_P1;SDS_P2;PMS_P1;PMS_P2;Temp;Humidity;BMP_temperature;BMP_pressure;BME280_temperature;BME280_humidity;BME280_pressure;Samples;Min_cycle;Max_cycle;Signal;HPM_P1;HPM_P2
2022/08/14 00:00:24;;;;;;;4.00;1.17;;;;;;;;;;5030425;28;20045;-77
2022/08/14 00:02:50;;;;;;;2.30;1.00;;;;;;;;;;5030556;28;20033;-77
2022/08/14 00:05:18;;;;;;;3.75;1.45;;;;;;;;;;5028050;28;20040;-77
2022/08/14 00:07:45;;;;;;;3.97;1.30;;;;;;;;;;5030266;28;20784;-77
2022/08/14 00:10:12;;;;;;;20.42;2.40;;;;;;;;;;5029403;28;20087;-77
2022/08/14 00:12:40;;;;;;;6.78;1.33;;;;;;;;;;5030466;28;20037;-77
2022/08/14 00:15:09;;;;;;;2.65;1.20;;;;;;;;;;5033345;28;20153;-77
2022/08/14 00:17:35;;;;;;;4.90;1.50;;;;;;;;;;5025146;28;20026;-77
2022/08/14 00:20:01;;;;;;;5.22;0.98;;;;;;;;;;5029362;28;20032;-78
2022/08/14 00:22:27;;;;;;;2.42;1.10;;;;;;;;;;5030298;28;20110;-77
2022/08/14 00:24:53;;;;;;;3.55;1.10;;;;;;;;;;5037859;28;20029;-78
2022/08/14 00:27:19;;;;;;;7.15;1.10;;;;;;;;;;5030491;28;20068;-77
2022/08/14 00:29:45;;;;;;;2.88;1.02;;;;;;;;;;5017244;28;20123;-77
2022/08/14 00:32:12;;;;;;;1.63;0.82;;;;;;;;;;5029613;28;20037;-77
2022/08/14 00:34:38;;;;;;;2.42;1.13;;;;;;;;;;5016001;28;20156;-77
2022/08/14 00:37:04;;;;;;;2.88;0.90;;;;;;;;;;5027062;28;20032;-77
2022/08/14 00:39:30;;;;;;;2.65;1.10;;;;;;;;;;5031513;28;20037;-77
2022/08/14 00:41:56;;;;;;;1.95;0.80;;;;;;;;;;5028961;28;20036;-77
2022/08/14 00:44:23;;;;;;;3.35;1.02;;;;;;;;;;5034085;28;20029;-77
2022/08/14 00:46:49;;;;;;;4.50;1.17;;;;;;;;;;5025507;28;20120;-77
2022/08/14 00:49:15;;;;;;;2.35;0.93;;;;;;;;;;5029597;28;20437;-77
2022/08/14 00:51:42;;;;;;;4.38;1.35;;;;;;;;;;5025821;28;20047;-77
2022/08/14 00:54:10;;;;;;;2.88;1.17;;;;;;;;;;5029337;28;20029;-77
2022/08/14 00:56:36;;;;;;;3.15;0.98;;;;;;;;;;5029608;28;20040;-77
2022/08/14 00:59:03;;;;;;;3.55;1.10;;;;;;;;;;5028970;28;20033;-78
2022/08/14 01:01:29;;;;;;;2.50;1.10;;;;;;;;;;5029795;28;20057;-77
2022/08/14 01:03:57;;;;;;;2.30;1.02;;;;;;;;;;5027525;28;20065;-77
2022/08/14 01:06:24;;;;;;;4.93;1.30;;;;;;;;;;5029313;28;20037;-77
2022/08/14 01:08:50;;;;;;;3.63;1.27;;;;;;;;;;5034449;28;20037;-77
2022/08/14 01:11:17;;;;;;;4.72;1.30;;;;;;;;;;5031003;28;20080;-78
2022/08/14 01:13:44;;;;;;;4.28;1.08;;;;;;;;;;5023661;28;20040;-77
2022/08/14 01:16:11;;;;;;;2.28;1.00;;;;;;;;;;5028832;28;20040;-77
2022/08/14 01:21:33;;;;;;;4.90;1.58;;;;;;;;;;5019624;28;20044;-77
2022/08/14 01:23:59;;;;;;;3.13;1.20;;;;;;;;;;5024992;28;20025;-77
2022/08/14 01:26:27;;;;;;;2.40;1.00;;;;;;;;;;5029111;28;20042;-77
2022/08/14 01:28:54;;;;;;;3.42;0.82;;;;;;;;;;5029090;28;20047;-77
2022/08/14 01:31:21;;;;;;;2.58;0.80;;;;;;;;;;5022445;28;20038;-77
2022/08/14 01:33:48;;;;;;;5.40;1.10;;;;;;;;;;5028758;28;20026;-77
2022/08/14 01:36:15;;;;;;;1.85;0.80;;;;;;;;;;5025427;28;20041;-77
2022/08/14 01:38:42;;;;;;;3.78;1.00;;;;;;;;;;5028924;28;20029;-77
2022/08/14 01:41:12;;;;;;;2.47;1.23;;;;;;;;;;5028672;28;20037;-77
2022/08/14 01:43:49;;;;;;;2.85;1.05;;;;;;;;;;5020268;28;20109;-78
2022/08/14 01:46:20;;;;;;;3.25;1.10;;;;;;;;;;5016815;28;20044;-77
2022/08/14 01:48:47;;;;;;;4.30;1.08;;;;;;;;;;5029040;28;20061;-77
2022/08/14 01:51:14;;;;;;;2.95;1.10;;;;;;;;;;5023423;28;20037;-77
2022/08/14 01:53:41;;;;;;;4.22;1.17;;;;;;;;;;5029118;28;20471;-77
2022/08/14 01:56:07;;;;;;;4.03;1.00;;;;;;;;;;5028107;28;20044;-77
2022/08/14 01:58:33;;;;;;;2.38;0.80;;;;;;;;;;5029697;28;20111;-77
2022/08/14 02:00:59;;;;;;;1.85;1.05;;;;;;;;;;5032126;28;20096;-77
2022/08/14 02:03:30;;;;;;;2.83;0.82;;;;;;;;;;5032620;28;20809;-77
2022/08/14 02:05:59;;;;;;;3.70;1.20;;;;;;;;;;5032399;28;20088;-77
2022/08/14 02:08:29;;;;;;;3.55;0.80;;;;;;;;;;5029295;28;20584;-77
2022/08/14 02:13:42;;;;;;;2.10;0.77;;;;;;;;;;5032805;28;20424;-77
2022/08/14 02:16:09;;;;;;;5.78;1.40;;;;;;;;;;5031588;28;20037;-78
2022/08/14 02:18:35;;;;;;;3.58;0.80;;;;;;;;;;5028371;28;20500;-77
2022/08/14 02:21:03;;;;;;;3.05;1.33;;;;;;;;;;5022325;28;20029;-77
2022/08/14 02:23:30;;;;;;;3.35;1.10;;;;;;;;;;5032358;28;20026;-77
2022/08/14 02:25:58;;;;;;;2.95;1.00;;;;;;;;;;5019063;28;20117;-77
2022/08/14 02:28:24;;;;;;;1.50;0.75;;;;;;;;;;5031300;28;20030;-77
2022/08/14 02:30:50;;;;;;;3.22;1.02;;;;;;;;;;5029386;28;20041;-77
2022/08/14 02:33:17;;;;;;;4.10;0.90;;;;;;;;;;5028742;28;20367;-77
2022/08/14 02:35:44;;;;;;;4.93;0.77;;;;;;;;;;5022343;28;20049;-77
2022/08/14 02:38:10;;;;;;;2.08;0.77;;;;;;;;;;5026572;28;20026;-77
2022/08/14 02:40:36;;;;;;;3.25;0.90;;;;;;;;;;5031634;28;20152;-77
2022/08/14 02:43:04;;;;;;;9.00;1.20;;;;;;;;;;5037504;28;20100;-77
2022/08/14 02:45:31;;;;;;;2.33;1.02;;;;;;;;;;5019507;28;20090;-77
2022/08/14 02:47:58;;;;;;;2.63;0.82;;;;;;;;;;5025556;28;20090;-77
2022/08/14 02:50:24;;;;;;;4.22;1.05;;;;;;;;;;5020397;28;20515;-77
2022/08/14 02:52:50;;;;;;;2.47;0.80;;;;;;;;;;5021738;28;20486;-77
2022/08/14 02:55:16;;;;;;;2.10;0.77;;;;;;;;;;5031432;28;20041;-77
2022/08/14 02:57:42;;;;;;;2.47;0.98;;;;;;;;;;5031410;28;20040;-77
2022/08/14 03:00:11;;;;;;;4.20;0.93;;;;;;;;;;5031633;28;20628;-77
2022/08/14 03:02:37;;;;;;;6.05;0.82;;;;;;;;;;5033523;28;20037;-77
2022/08/14 03:05:04;;;;;;;2.08;0.90;;;;;;;;;;5038030;28;20044;-78
2022/08/14 03:07:30;;;;;;;3.28;1.02;;;;;;;;;;5029923;28;20037;-77
2022/08/14 03:09:56;;;;;;;2.67;1.00;;;;;;;;;;5030681;28;20041;-77
2022/08/14 03:12:22;;;;;;;4.05;1.10;;;;;;;;;;5031198;28;20034;-77
2022/08/14 03:14:50;;;;;;;2.75;1.00;;;;;;;;;;5029584;28;20033;-77
2022/08/14 03:17:16;;;;;;;2.65;1.15;;;;;;;;;;5030431;28;20026;-77
2022/08/14 03:19:42;;;;;;;5.15;1.23;;;;;;;;;;5029895;28;20025;-77
2022/08/14 03:22:08;;;;;;;2.72;1.00;;;;;;;;;;5026457;28;20049;-78
2022/08/14 03:24:35;;;;;;;6.75;1.20;;;;;;;;;;5028545;28;20025;-78
2022/08/14 03:27:02;;;;;;;5.03;1.33;;;;;;;;;;5029539;28;20033;-77
2022/08/14 03:29:28;;;;;;;5.63;1.80;;;;;;;;;;5029836;28;20076;-78
2022/08/14 03:31:55;;;;;;;4.88;1.80;;;;;;;;;;5028220;28;20029;-77
2022/08/14 03:34:25;;;;;;;6.47;2.20;;;;;;;;;;5031551;28;20082;-77
2022/08/14 03:36:55;;;;;;;4.85;2.20;;;;;;;;;;5029626;28;20029;-77
2022/08/14 03:39:22;;;;;;;14.25;5.13;;;;;;;;;;5026743;28;20039;-77
2022/08/14 03:41:49;;;;;;;12.00;6.15;;;;;;;;;;5027278;28;20045;-77
2022/08/14 03:44:15;;;;;;;13.68;7.70;;;;;;;;;;5027817;28;20068;-77
2022/08/14 03:46:41;;;;;;;14.27;6.70;;;;;;;;;;5027596;28;20095;-77
2022/08/14 03:49:08;;;;;;;11.07;5.38;;;;;;;;;;5024944;28;20391;-78
2022/08/14 03:51:36;;;;;;;12.60;5.78;;;;;;;;;;5028900;28;20041;-77
2022/08/14 03:54:03;;;;;;;10.57;5.32;;;;;;;;;;5029012;28;20025;-77
2022/08/14 03:56:29;;;;;;;9.15;4.38;;;;;;;;;;5026677;28;20045;-77
2022/08/14 03:58:57;;;;;;;11.68;4.63;;;;;;;;;;5029996;28;20053;-77
2022/08/14 04:01:24;;;;;;;9.27;5.47;;;;;;;;;;5029843;28;20044;-77
2022/08/14 04:03:52;;;;;;;9.88;4.63;;;;;;;;;;5029713;28;20029;-77
2022/08/14 04:06:21;;;;;;;11.43;4.90;;;;;;;;;;5034639;28;20038;-77
2022/08/14 04:08:52;;;;;;;7.53;4.22;;;;;;;;;;5030526;28;20041;-78
2022/08/14 04:11:18;;;;;;;9.48;4.28;;;;;;;;;;5023452;28;20394;-77
2022/08/14 04:13:45;;;;;;;12.07;3.70;;;;;;;;;;5029849;28;20025;-77
2022/08/14 04:16:13;;;;;;;8.90;4.25;;;;;;;;;;5022844;28;20452;-78
2022/08/14 04:18:44;;;;;;;8.27;3.22;;;;;;;;;;5030255;28;20025;-77
2022/08/14 04:21:10;;;;;;;8.75;3.00;;;;;;;;;;5025063;28;20613;-77
2022/08/14 04:23:37;;;;;;;6.13;3.00;;;;;;;;;;5030450;28;20572;-77
2022/08/14 04:26:04;;;;;;;7.35;3.40;;;;;;;;;;5029724;28;20037;-77
2022/08/14 04:28:31;;;;;;;7.50;3.33;;;;;;;;;;5030443;28;20037;-77
2022/08/14 04:30:57;;;;;;;6.03;2.47;;;;;;;;;;5029291;28;20069;-77
2022/08/14 04:33:23;;;;;;;8.35;2.28;;;;;;;;;;5021546;28;20061;-77
2022/08/14 04:35:50;;;;;;;4.88;1.90;;;;;;;;;;5029517;28;20116;-77
2022/08/14 04:43:46;;;;;;;5.15;2.08;;;;;;;;;;5023057;28;20060;-77
2022/08/14 04:46:13;;;;;;;6.57;2.55;;;;;;;;;;5029450;28;20620;-78
2022/08/14 04:48:40;;;;;;;5.50;1.90;;;;;;;;;;5030100;28;20820;-77
2022/08/14 04:51:07;;;;;;;5.55;2.08;;;;;;;;;;5029751;28;20551;-78
2022/08/14 04:53:34;;;;;;;6.53;2.20;;;;;;;;;;5029262;28;20675;-78
2022/08/14 04:56:00;;;;;;;8.07;2.50;;;;;;;;;;5022615;28;20048;-77
2022/08/14 04:58:27;;;;;;;7.15;2.45;;;;;;;;;;5027720;28;20144;-77
2022/08/14 05:00:54;;;;;;;9.77;3.17;;;;;;;;;;5022391;28;20050;-77
2022/08/14 05:03:20;;;;;;;5.72;2.40;;;;;;;;;;5028895;28;20040;-77
2022/08/14 05:05:50;;;;;;;5.97;2.42;;;;;;;;;;5029116;28;20037;-78
2022/08/14 05:08:17;;;;;;;5.32;2.17;;;;;;;;;;5028736;28;20057;-77
2022/08/14 05:10:44;;;;;;;6.43;2.50;;;;;;;;;;5021901;28;20041;-77
2022/08/14 05:13:12;;;;;;;4.85;2.10;;;;;;;;;;5028444;28;20029;-77
2022/08/14 05:15:39;;;;;;;6.25;2.33;;;;;;;;;;5029197;28;20038;-77
2022/08/14 05:18:12;;;;;;;3.75;1.73;;;;;;;;;;5023744;28;20072;-77
2022/08/14 05:20:39;;;;;;;6.70;1.80;;;;;;;;;;5029772;28;20037;-77
2022/08/14 05:23:06;;;;;;;4.47;1.85;;;;;;;;;;5028894;28;20533;-77
2022/08/14 05:25:33;;;;;;;3.35;1.58;;;;;;;;;;5029482;28;20132;-77
2022/08/14 05:28:05;;;;;;;3.63;1.40;;;;;;;;;;5029906;28;20017;-77
2022/08/14 05:30:32;;;;;;;6.40;1.52;;;;;;;;;;5031883;28;20041;-77
2022/08/14 05:33:00;;;;;;;3.88;1.33;;;;;;;;;;5028177;28;20064;-77
2022/08/14 05:35:26;;;;;;;6.10;1.90;;;;;;;;;;5026298;28;20116;-77
2022/08/14 05:37:52;;;;;;;4.38;1.85;;;;;;;;;;5028991;28;20030;-77
2022/08/14 05:40:18;;;;;;;4.90;1.73;;;;;;;;;;5029383;28;20037;-77
2022/08/14 05:42:44;;;;;;;5.55;2.28;;;;;;;;;;5029189;28;20026;-77
2022/08/14 05:45:13;;;;;;;7.03;2.00;;;;;;;;;;5029221;28;20057;-77
2022/08/14 05:47:40;;;;;;;7.90;2.17;;;;;;;;;;5027854;28;20483;-77
2022/08/14 05:50:08;;;;;;;6.72;2.58;;;;;;;;;;5026761;28;20033;-77
2022/08/14 05:52:34;;;;;;;4.63;2.30;;;;;;;;;;5027279;28;20029;-77
2022/08/14 05:55:00;;;;;;;5.70;2.30;;;;;;;;;;5022199;28;20049;-77
2022/08/14 05:57:26;;;;;;;8.02;2.35;;;;;;;;;;5029218;28;20037;-78
2022/08/14 05:59:52;;;;;;;6.63;2.08;;;;;;;;;;5018645;28;20700;-77
2022/08/14 06:02:18;;;;;;;3.78;2.20;;;;;;;;;;5011695;28;20033;-77
2022/08/14 06:04:47;;;;;;;7.53;2.15;;;;;;;;;;5023114;28;20029;-78
2022/08/14 06:07:16;;;;;;;5.90;1.80;;;;;;;;;;5019207;28;20037;-77
2022/08/14 06:09:43;;;;;;;3.70;1.75;;;;;;;;;;5019406;28;20030;-77
2022/08/14 06:12:09;;;;;;;7.15;2.20;;;;;;;;;;5027617;28;20778;-78
2022/08/14 06:14:36;;;;;;;6.57;2.08;;;;;;;;;;5027235;28;20235;-77
2022/08/14 06:17:02;;;;;;;6.40;2.30;;;;;;;;;;5026294;28;20597;-77
2022/08/14 06:19:28;;;;;;;4.35;1.67;;;;;;;;;;5033724;28;20111;-78
2022/08/14 06:21:54;;;;;;;3.42;1.58;;;;;;;;;;5036848;28;20037;-77
2022/08/14 06:24:20;;;;;;;6.82;1.63;;;;;;;;;;5042573;28;20375;-78
2022/08/14 06:26:47;;;;;;;3.28;1.73;;;;;;;;;;5039855;28;20044;-77
2022/08/14 06:29:13;;;;;;;2.92;1.60;;;;;;;;;;5034383;28;20103;-78
2022/08/14 06:31:39;;;;;;;3.97;1.52;;;;;;;;;;5034244;28;20045;-77
2022/08/14 06:34:05;;;;;;;6.28;1.52;;;;;;;;;;5032065;28;20033;-77
2022/08/14 06:36:31;;;;;;;6.05;1.70;;;;;;;;;;5031319;28;20467;-77
2022/08/14 06:38:57;;;;;;;3.75;1.60;;;;;;;;;;5034372;28;20148;-77
2022/08/14 06:41:23;;;;;;;5.38;1.40;;;;;;;;;;5022108;28;20787;-77
2022/08/14 06:43:49;;;;;;;2.97;1.10;;;;;;;;;;5027524;28;20087;-77
2022/08/14 06:46:16;;;;;;;2.90;1.30;;;;;;;;;;5034590;28;20567;-77
2022/08/14 06:48:42;;;;;;;4.63;1.50;;;;;;;;;;5027600;28;20029;-77
2022/08/14 06:51:08;;;;;;;2.58;1.33;;;;;;;;;;5027029;28;20029;-78
2022/08/14 06:53:35;;;;;;;9.30;2.63;;;;;;;;;;5028978;28;20663;-77
2022/08/14 06:56:01;;;;;;;6.40;2.50;;;;;;;;;;5030905;28;20498;-77
2022/08/14 06:58:27;;;;;;;6.30;2.20;;;;;;;;;;5039343;28;20029;-77
2022/08/14 07:06:23;;;;;;;3.78;1.92;;;;;;;;;;5028026;28;20144;-78
2022/08/14 07:08:50;;;;;;;5.97;2.20;;;;;;;;;;5031333;28;20075;-78
2022/08/14 07:11:16;;;;;;;4.85;1.80;;;;;;;;;;5030819;28;20120;-78
2022/08/14 07:13:42;;;;;;;6.28;1.88;;;;;;;;;;5037622;28;20667;-78
2022/08/14 07:16:11;;;;;;;4.90;1.80;;;;;;;;;;5030285;28;20037;-78
2022/08/14 07:18:38;;;;;;;7.97;1.92;;;;;;;;;;5033533;28;20029;-78
2022/08/14 07:21:05;;;;;;;4.35;1.67;;;;;;;;;;5037485;28;20048;-78
2022/08/14 07:23:31;;;;;;;5.45;1.65;;;;;;;;;;5043932;28;20026;-78
2022/08/14 07:25:58;;;;;;;4.43;1.90;;;;;;;;;;5042625;28;20500;-79
2022/08/14 07:28:26;;;;;;;5.07;1.60;;;;;;;;;;5031965;28;20025;-79
2022/08/14 07:30:59;;;;;;;3.92;1.45;;;;;;;;;;5046737;28;20502;-79
2022/08/14 07:33:26;;;;;;;4.00;1.35;;;;;;;;;;5038781;28;20041;-79
2022/08/14 07:35:53;;;;;;;4.00;1.40;;;;;;;;;;5045011;28;20508;-79
2022/08/14 07:38:20;;;;;;;5.10;1.52;;;;;;;;;;5033750;28;20056;-78
2022/08/14 07:40:47;;;;;;;6.30;1.75;;;;;;;;;;5038452;28;20034;-78
2022/08/14 07:43:13;;;;;;;4.32;1.42;;;;;;;;;;5028823;28;20044;-78
2022/08/14 07:45:40;;;;;;;2.78;1.20;;;;;;;;;;5026279;28;20044;-78
2022/08/14 07:48:06;;;;;;;4.25;1.77;;;;;;;;;;5037600;28;20580;-79
2022/08/14 07:50:33;;;;;;;5.30;1.77;;;;;;;;;;5027504;28;20049;-78
2022/08/14 07:53:00;;;;;;;5.00;1.90;;;;;;;;;;5032846;28;20042;-79
2022/08/14 07:55:27;;;;;;;4.05;1.70;;;;;;;;;;5028823;28;20033;-79
2022/08/14 07:57:53;;;;;;;3.88;1.17;;;;;;;;;;5034421;28;20073;-79
2022/08/14 08:00:23;;;;;;;4.93;1.85;;;;;;;;;;5041578;28;20045;-79
2022/08/14 08:02:51;;;;;;;7.40;1.70;;;;;;;;;;5038560;28;20030;-78
2022/08/14 08:05:18;;;;;;;3.42;1.48;;;;;;;;;;5030584;28;20026;-79
2022/08/14 08:07:45;;;;;;;5.80;1.70;;;;;;;;;;5022643;28;20037;-79
2022/08/14 08:10:30;;;;;;;5.35;1.30;;;;;;;;;;5024185;28;20100;-78
2022/08/14 08:12:58;;;;;;;5.28;1.23;;;;;;;;;;5032346;28;20116;-79
2022/08/14 08:15:25;;;;;;;7.47;1.60;;;;;;;;;;5028922;28;20037;-79
2022/08/14 08:17:51;;;;;;;4.65;1.45;;;;;;;;;;5023958;28;20030;-79
2022/08/14 08:20:18;;;;;;;5.30;1.70;;;;;;;;;;5026265;28;20076;-79
2022/08/14 08:22:45;;;;;;;7.68;1.80;;;;;;;;;;5038229;28;20059;-78
2022/08/14 08:25:11;;;;;;;4.32;1.83;;;;;;;;;;5031271;28;20064;-78
2022/08/14 08:27:38;;;;;;;6.47;1.40;;;;;;;;;;5030842;28;20033;-79
2022/08/14 08:30:09;;;;;;;7.03;1.75;;;;;;;;;;5032158;28;20060;-79
2022/08/14 08:32:42;;;;;;;2.92;1.20;;;;;;;;;;5028975;28;20065;-79
2022/08/14 08:35:38;;;;;;;9.93;1.60;;;;;;;;;;5028555;28;20374;-78
2022/08/14 08:38:27;;;;;;;12.73;1.60;;;;;;;;;;5019397;28;20045;-78
2022/08/14 08:40:57;;;;;;;7.05;1.50;;;;;;;;;;5020514;28;20120;-78
2022/08/14 08:43:24;;;;;;;8.98;1.77;;;;;;;;;;5028750;28;20072;-79
2022/08/14 08:45:59;;;;;;;5.45;1.90;;;;;;;;;;5025213;28;20034;-78
2022/08/14 08:48:30;;;;;;;7.50;2.00;;;;;;;;;;5029929;28;20056;-78
2022/08/14 08:50:57;;;;;;;4.60;1.45;;;;;;;;;;5028748;28;20076;-78
2022/08/14 08:53:30;;;;;;;10.38;2.30;;;;;;;;;;5032640;28;20095;-78
2022/08/14 08:55:56;;;;;;;4.95;1.88;;;;;;;;;;5033187;28;20029;-79
2022/08/14 08:58:22;;;;;;;7.22;1.80;;;;;;;;;;5032029;28;20026;-79
2022/08/14 09:00:50;;;;;;;8.93;2.60;;;;;;;;;;5027901;28;20068;-79
2022/08/14 09:03:19;;;;;;;4.10;1.90;;;;;;;;;;5023867;28;20022;-79
2022/08/14 09:05:51;;;;;;;3.78;1.50;;;;;;;;;;5043873;28;20514;-78
2022/08/14 09:08:24;;;;;;;3.58;1.95;;;;;;;;;;5024553;28;20095;-78
2022/08/14 09:10:51;;;;;;;5.20;1.80;;;;;;;;;;5028207;28;20083;-79
2022/08/14 09:13:18;;;;;;;5.45;1.90;;;;;;;;;;5019140;28;20116;-78
2022/08/14 09:15:45;;;;;;;7.25;1.98;;;;;;;;;;5032002;28;20033;-78
2022/08/14 09:18:12;;;;;;;9.48;2.97;;;;;;;;;;5033631;28;20026;-79
2022/08/14 09:20:39;;;;;;;3.38;1.50;;;;;;;;;;5039508;28;20398;-79
2022/08/14 09:23:06;;;;;;;9.27;2.17;;;;;;;;;;5028533;28;20106;-79
2022/08/14 09:25:32;;;;;;;4.35;1.40;;;;;;;;;;5028336;28;20041;-78
2022/08/14 09:27:58;;;;;;;4.93;1.83;;;;;;;;;;5021894;28;20037;-79
2022/08/14 09:30:24;;;;;;;12.35;2.05;;;;;;;;;;5028199;28;20046;-79
2022/08/14 09:33:11;;;;;;;9.80;2.10;;;;;;;;;;5031399;28;20036;-79
2022/08/14 09:35:37;;;;;;;13.27;2.47;;;;;;;;;;5017760;28;20080;-78
2022/08/14 09:38:06;;;;;;;11.13;2.60;;;;;;;;;;5029650;28;20233;-79
2022/08/14 09:40:38;;;;;;;7.25;2.55;;;;;;;;;;5028589;28;20041;-79
2022/08/14 09:43:14;;;;;;;7.22;2.35;;;;;;;;;;5035064;28;20061;-79
2022/08/14 09:45:48;;;;;;;7.13;2.70;;;;;;;;;;5031681;28;20079;-79
2022/08/14 09:48:21;;;;;;;10.13;2.70;;;;;;;;;;5027690;28;20499;-79
2022/08/14 09:50:48;;;;;;;10.07;2.83;;;;;;;;;;5037449;28;20044;-79
2022/08/14 09:53:32;;;;;;;12.48;2.80;;;;;;;;;;5038814;28;20060;-79
2022/08/14 09:55:59;;;;;;;8.35;3.22;;;;;;;;;;5033811;28;20123;-79
2022/08/14 09:58:34;;;;;;;8.13;2.88;;;;;;;;;;5027066;28;20014;-79
2022/08/14 10:01:08;;;;;;;8.02;2.60;;;;;;;;;;5034837;28;20491;-79
2022/08/14 10:03:35;;;;;;;6.18;2.40;;;;;;;;;;5028981;28;20037;-79
2022/08/14 10:06:05;;;;;;;5.15;1.83;;;;;;;;;;5021566;28;20033;-79
2022/08/14 10:08:40;;;;;;;7.35;2.13;;;;;;;;;;5034138;28;20115;-80
2022/08/14 10:11:35;;;;;;;4.75;2.00;;;;;;;;;;5024169;28;20708;-80
2022/08/14 10:14:21;;;;;;;7.35;2.45;;;;;;;;;;5022706;28;20049;-79
2022/08/14 10:16:53;;;;;;;8.48;2.70;;;;;;;;;;5034071;28;20044;-79
2022/08/14 10:19:20;;;;;;;7.22;2.63;;;;;;;;;;5028137;28;20374;-79
2022/08/14 10:22:07;;;;;;;6.35;2.88;;;;;;;;;;5036652;28;20036;-79
2022/08/14 10:24:40;;;;;;;5.75;2.70;;;;;;;;;;5030791;28;20441;-79
2022/08/14 10:27:22;;;;;;;8.25;2.90;;;;;;;;;;5032654;28;20036;-79
2022/08/14 10:30:03;;;;;;;7.43;2.45;;;;;;;;;;5031388;28;20033;-79
2022/08/14 10:32:29;;;;;;;5.90;1.92;;;;;;;;;;5031045;28;20063;-79
2022/08/14 10:35:14;;;;;;;5.57;2.30;;;;;;;;;;5033738;28;20865;-79
2022/08/14 10:37:50;;;;;;;5.47;2.33;;;;;;;;;;5029279;28;20029;-79
2022/08/14 10:40:27;;;;;;;13.80;3.10;;;;;;;;;;5030254;28;20068;-79
2022/08/14 10:42:53;;;;;;;7.03;2.50;;;;;;;;;;5038569;28;20029;-79
2022/08/14 10:45:39;;;;;;;6.80;2.80;;;;;;;;;;5031618;28;20090;-79
2022/08/14 10:48:13;;;;;;;6.07;2.78;;;;;;;;;;5025831;28;20025;-79
2022/08/14 10:50:48;;;;;;;6.25;3.30;;;;;;;;;;5023944;28;20065;-79
2022/08/14 10:53:14;;;;;;;6.63;2.78;;;;;;;;;;5032076;28;20091;-79
2022/08/14 10:55:40;;;;;;;9.02;2.83;;;;;;;;;;5033324;28;20040;-79
2022/08/14 10:58:10;;;;;;;5.18;2.47;;;;;;;;;;5031923;28;20033;-79
2022/08/14 11:00:37;;;;;;;6.32;2.72;;;;;;;;;;5030778;28;20458;-79
2022/08/14 11:03:13;;;;;;;9.23;3.15;;;;;;;;;;5035811;28;20025;-79
2022/08/14 11:05:42;;;;;;;6.53;2.92;;;;;;;;;;5026849;28;20092;-79
2022/08/14 11:08:09;;;;;;;5.55;2.38;;;;;;;;;;5030621;28;20036;-78
2022/08/14 11:10:55;;;;;;;3.78;1.70;;;;;;;;;;5030548;28;20044;-79
2022/08/14 11:13:26;;;;;;;3.65;1.90;;;;;;;;;;5028221;28;20033;-79
2022/08/14 11:15:53;;;;;;;3.50;1.80;;;;;;;;;;5030926;28;20022;-79
2022/08/14 11:18:19;;;;;;;3.28;1.90;;;;;;;;;;5037054;28;20409;-79
2022/08/14 11:20:49;;;;;;;4.82;1.67;;;;;;;;;;5035830;28;20053;-79
2022/08/14 11:23:17;;;;;;;6.03;1.70;;;;;;;;;;5038208;28;20568;-79
2022/08/14 11:25:44;;;;;;;8.77;2.75;;;;;;;;;;5031410;28;20067;-79
2022/08/14 11:28:15;;;;;;;7.25;2.15;;;;;;;;;;5033166;28;20577;-79
2022/08/14 11:30:44;;;;;;;3.10;1.50;;;;;;;;;;5037567;28;20033;-80
2022/08/14 11:33:10;;;;;;;6.65;1.50;;;;;;;;;;5029307;28;20841;-79
2022/08/14 11:35:37;;;;;;;5.07;2.05;;;;;;;;;;5025243;28;20038;-79
2022/08/14 11:38:05;;;;;;;7.05;1.98;;;;;;;;;;5020586;28;20478;-80
2022/08/14 11:40:33;;;;;;;7.13;2.20;;;;;;;;;;5030665;28;20034;-80
2022/08/14 11:43:00;;;;;;;7.78;2.05;;;;;;;;;;5029147;28;20029;-80
2022/08/14 11:45:31;;;;;;;6.50;2.00;;;;;;;;;;5033076;28;20038;-79
2022/08/14 11:47:57;;;;;;;10.32;2.03;;;;;;;;;;5031321;28;20668;-79
2022/08/14 11:50:25;;;;;;;5.88;2.00;;;;;;;;;;5030129;28;20033;-79
2022/08/14 11:52:55;;;;;;;6.32;3.55;;;;;;;;;;5033413;28;20685;-79
2022/08/14 11:55:21;;;;;;;6.47;2.30;;;;;;;;;;5032954;28;20372;-79
2022/08/14 11:57:58;;;;;;;4.85;1.92;;;;;;;;;;5030356;28;20455;-79
2022/08/14 12:00:24;;;;;;;6.00;1.55;;;;;;;;;;5032541;28;20125;-79
2022/08/14 12:02:52;;;;;;;5.65;1.73;;;;;;;;;;5029350;28;20105;-79
2022/08/14 12:05:29;;;;;;;6.40;2.08;;;;;;;;;;5032248;28;20091;-79
2022/08/14 12:07:57;;;;;;;6.50;1.98;;;;;;;;;;5031465;28;20115;-79
2022/08/14 12:10:23;;;;;;;7.43;1.98;;;;;;;;;;5030201;28;20039;-79
2022/08/14 12:12:54;;;;;;;5.15;1.95;;;;;;;;;;5019774;28;20030;-79
2022/08/14 12:15:36;;;;;;;4.07;1.83;;;;;;;;;;5031255;28;20385;-79
2022/08/14 12:18:03;;;;;;;4.45;1.92;;;;;;;;;;5038409;28;20040;-79
2022/08/14 12:20:30;;;;;;;4.68;1.80;;;;;;;;;;5031752;28;20044;-79
2022/08/14 12:22:56;;;;;;;3.97;1.50;;;;;;;;;;5038693;28;20098;-79
2022/08/14 12:25:23;;;;;;;3.90;1.55;;;;;;;;;;5027722;28;20489;-79
2022/08/14 12:27:51;;;;;;;3.88;1.48;;;;;;;;;;5024621;28;20100;-79
2022/08/14 12:30:33;;;;;;;3.83;1.70;;;;;;;;;;5033173;28;20033;-79
2022/08/14 12:33:01;;;;;;;2.92;1.40;;;;;;;;;;5035869;28;20036;-79
2022/08/14 12:35:41;;;;;;;3.15;1.40;;;;;;;;;;5030773;28;20037;-79
2022/08/14 12:38:09;;;;;;;3.42;1.33;;;;;;;;;;5023938;28;20025;-79
2022/08/14 12:40:45;;;;;;;3.50;1.25;;;;;;;;;;5032115;28;20025;-79
2022/08/14 12:43:11;;;;;;;8.05;1.85;;;;;;;;;;5036844;28;20017;-79
2022/08/14 12:45:37;;;;;;;2.97;1.33;;;;;;;;;;5027210;28;20026;-79
2022/08/14 12:48:04;;;;;;;3.95;1.20;;;;;;;;;;5027943;28;20037;-79
2022/08/14 12:50:36;;;;;;;3.30;1.50;;;;;;;;;;5033747;28;20041;-79
2022/08/14 12:53:02;;;;;;;2.67;1.30;;;;;;;;;;5036177;28;20829;-78
2022/08/14 12:55:34;;;;;;;3.03;1.38;;;;;;;;;;5031947;28;20512;-79
2022/08/14 12:58:02;;;;;;;;;;;;;;;;;;5026292;28;20032;-79
2022/08/14 13:00:28;;;;;;;4.38;1.20;;;;;;;;;;5019125;28;19931;-79
2022/08/14 13:02:55;;;;;;;5.20;1.50;;;;;;;;;;5018799;28;20029;-79
2022/08/14 13:05:23;;;;;;;4.32;1.60;;;;;;;;;;5024398;28;20034;-79
2022/08/14 13:07:50;;;;;;;2.30;1.58;;;;;;;;;;5028781;28;20035;-79
2022/08/14 13:10:16;;;;;;;2.45;1.42;;;;;;;;;;5036826;28;20711;-79
2022/08/14 13:12:42;;;;;;;5.88;1.50;;;;;;;;;;5016544;28;20475;-78
2022/08/14 13:15:10;;;;;;;10.48;1.80;;;;;;;;;;5040159;28;20036;-79
2022/08/14 13:17:40;;;;;;;3.13;1.27;;;;;;;;;;5028402;28;20075;-79
2022/08/14 13:20:06;;;;;;;4.57;1.50;;;;;;;;;;5037600;28;20072;-79
2022/08/14 13:22:33;;;;;;;2.72;1.30;;;;;;;;;;5034121;28;20026;-79
2022/08/14 13:25:02;;;;;;;3.67;1.40;;;;;;;;;;5043186;28;20040;-79
2022/08/14 13:27:28;;;;;;;3.45;1.58;;;;;;;;;;5031427;28;20033;-79
2022/08/14 13:29:56;;;;;;;3.88;1.20;;;;;;;;;;5037067;28;20076;-79
2022/08/14 13:32:27;;;;;;;2.90;1.40;;;;;;;;;;5039323;28;20435;-79
2022/08/14 13:34:53;;;;;;;4.87;1.23;;;;;;;;;;5034740;28;20027;-79
2022/08/14 13:37:20;;;;;;;3.42;1.20;;;;;;;;;;5030642;28;20370;-79
2022/08/14 13:39:48;;;;;;;2.75;1.20;;;;;;;;;;5037329;28;20069;-79
2022/08/14 13:42:16;;;;;;;3.03;1.20;;;;;;;;;;5036905;28;20028;-79
2022/08/14 13:44:43;;;;;;;4.57;1.60;;;;;;;;;;5030471;28;20554;-79
2022/08/14 13:47:10;;;;;;;2.95;1.48;;;;;;;;;;5031957;28;20691;-80
2022/08/14 13:49:37;;;;;;;3.50;1.40;;;;;;;;;;5028641;28;20479;-79
2022/08/14 13:52:04;;;;;;;3.33;1.55;;;;;;;;;;5036368;28;20502;-79
2022/08/14 13:54:31;;;;;;;3.20;1.45;;;;;;;;;;5028788;28;20045;-79
2022/08/14 13:56:59;;;;;;;2.47;1.20;;;;;;;;;;5024919;28;20044;-79
2022/08/14 13:59:28;;;;;;;7.07;1.42;;;;;;;;;;5041537;28;20057;-79
2022/08/14 14:01:55;;;;;;;5.95;1.55;;;;;;;;;;5044261;28;20029;-79
2022/08/14 14:04:23;;;;;;;6.22;1.60;;;;;;;;;;5034687;28;20033;-79
2022/08/14 14:06:50;;;;;;;2.45;1.15;;;;;;;;;;5034583;28;20032;-79
2022/08/14 14:09:27;;;;;;;5.20;1.13;;;;;;;;;;5037660;28;20121;-79
2022/08/14 14:11:55;;;;;;;3.00;1.25;;;;;;;;;;5038719;28;20382;-79
2022/08/14 14:14:23;;;;;;;4.10;1.20;;;;;;;;;;5040974;28;20763;-79
2022/08/14 14:16:50;;;;;;;4.10;1.33;;;;;;;;;;5035819;28;20036;-78
2022/08/14 14:19:18;;;;;;;3.42;1.67;;;;;;;;;;5039622;28;20037;-79
2022/08/14 14:21:44;;;;;;;3.33;1.40;;;;;;;;;;5029614;28;20021;-79
2022/08/14 14:24:10;;;;;;;3.50;1.23;;;;;;;;;;5043461;28;20413;-79
2022/08/14 14:26:37;;;;;;;2.58;1.10;;;;;;;;;;5031942;28;20116;-79
2022/08/14 14:29:05;;;;;;;1.83;1.20;;;;;;;;;;5032467;28;20038;-79
2022/08/14 14:31:32;;;;;;;2.95;1.10;;;;;;;;;;5033548;28;20033;-79
2022/08/14 14:34:02;;;;;;;4.20;1.00;;;;;;;;;;5041519;28;20503;-79
2022/08/14 14:36:29;;;;;;;5.72;1.90;;;;;;;;;;5041741;28;20031;-79
2022/08/14 14:39:00;;;;;;;3.50;1.27;;;;;;;;;;5042350;28;20108;-79
2022/08/14 14:41:31;;;;;;;2.50;1.17;;;;;;;;;;5043070;28;20029;-79
2022/08/14 14:43:58;;;;;;;3.17;1.13;;;;;;;;;;5040536;28;20029;-79
2022/08/14 14:46:24;;;;;;;3.03;1.15;;;;;;;;;;5041554;28;20729;-79
2022/08/14 14:48:50;;;;;;;2.75;1.00;;;;;;;;;;5033464;28;20425;-79
2022/08/14 14:51:18;;;;;;;2.22;0.90;;;;;;;;;;5033610;28;20538;-79
2022/08/14 14:53:45;;;;;;;2.38;1.10;;;;;;;;;;5036180;28;20048;-79
2022/08/14 14:56:11;;;;;;;3.72;1.25;;;;;;;;;;5029589;28;20026;-79
2022/08/14 14:58:38;;;;;;;3.20;1.33;;;;;;;;;;5025415;28;20041;-79
2022/08/14 15:01:05;;;;;;;4.35;1.40;;;;;;;;;;5033735;28;20033;-79
2022/08/14 15:03:31;;;;;;;2.42;1.13;;;;;;;;;;5033130;28;20037;-79
2022/08/14 15:05:57;;;;;;;2.72;1.20;;;;;;;;;;5036733;28;20731;-79